Terminal Aerodrome Forecast
Issued by NWS

Home | Current Version | Previous Version | Text Only | Print | Product List | Glossary On
Versions: 1 2 3 4 5 6 7 8 9 10 11 12
000
FTAK31 PAJN 222300
TAFASI
TAF
PASI 222335Z 2300/2324 27006KT P6SM SCT040 BKN080 BKN120
     FM230400 33005KT P6SM VCSH SCT030 OVC060
     FM230800 VRB03KT P6SM -SHRA BKN025 OVC050
     FM231300 VRB04KT P6SM VCSH SCT020 BKN040 BKN080
     FM231700 32007KT P6SM SCT040 BKN080=

USA.gov is the U.S. government's official web portal to all federal, state and local government web resources and services.